Adscombe, United Kingdom
Current Conditions -  °F | °C
As of 8:50 AM on Saturday 22 Nov 2014 (Local Time) from EGFF Reporting Station
Broken Clouds Broken Clouds  
Wind Chill: 55°   Ceiling: 1400
Heat Index: 55°   Visibility: 6mi
Dew Point: 55°   Wind: 3mph
Humidity: 100%   Direction: NA
Pressure: 29.83"   Gusts: NA
Location:  51.13°N, 3.1°W
Report Text: EGFF 220850Z VRB03KT 9999 FEW004 BKN014 BKN028 13/13 Q1010
Loading
Personal Weather Stations






























Interactive Weather Map New forecast layout! Learn more

10-Day Weather Forecast

Advertisements
Track Severe Weather on mobile